Time;durP1;ratioP1;P1;durP2;ratioP2;P2;SDS_P1;SDS_P2;PMS_P1;PMS_P2;Temp;Humidity;BMP_temperature;BMP_pressure;BME280_temperature;BME280_humidity;BME280_pressure;Samples;Min_cycle;Max_cycle;Signal;HPM_P1;HPM_P2
2021/06/29 00:00:56;;;;;;;3.60;3.30;;;;;;;;;;5110926;28;20188;-85
2021/06/29 00:03:25;;;;;;;3.97;3.67;;;;;;;;;;5110808;28;20218;-84
2021/06/29 00:05:53;;;;;;;3.67;3.40;;;;;;;;;;5110269;28;20216;-86
2021/06/29 00:08:20;;;;;;;4.03;3.72;;;;;;;;;;5109995;28;20190;-85
2021/06/29 00:10:48;;;;;;;3.88;3.58;;;;;;;;;;5109821;28;20210;-85
2021/06/29 00:13:18;;;;;;;3.40;3.10;;;;;;;;;;5110355;28;20188;-84
2021/06/29 00:15:46;;;;;;;2.88;2.67;;;;;;;;;;5109937;28;20306;-84
2021/06/29 00:18:13;;;;;;;3.05;2.85;;;;;;;;;;5110222;28;20176;-84
2021/06/29 00:20:42;;;;;;;4.15;3.85;;;;;;;;;;5109567;28;20195;-84
2021/06/29 00:23:10;;;;;;;4.80;4.10;;;;;;;;;;5110432;28;20176;-84
2021/06/29 00:25:37;;;;;;;3.17;2.97;;;;;;;;;;5110089;28;20223;-84
2021/06/29 00:28:05;;;;;;;3.40;3.20;;;;;;;;;;5109978;28;20707;-85
2021/06/29 00:30:33;;;;;;;3.40;3.10;;;;;;;;;;5110249;28;20219;-85
2021/06/29 00:33:00;;;;;;;3.10;2.80;;;;;;;;;;5110209;28;20216;-84
2021/06/29 00:35:28;;;;;;;3.25;3.05;;;;;;;;;;5109851;28;20196;-84
2021/06/29 00:37:56;;;;;;;3.42;3.15;;;;;;;;;;5122765;28;20557;-85
2021/06/29 00:40:26;;;;;;;3.40;3.10;;;;;;;;;;5130345;28;20179;-84
2021/06/29 00:42:54;;;;;;;2.95;2.75;;;;;;;;;;5130759;28;20270;-84
2021/06/29 00:45:21;;;;;;;2.10;2.00;;;;;;;;;;5130466;27;20582;-84
2021/06/29 00:47:49;;;;;;;5.95;2.33;;;;;;;;;;5134077;27;20184;-85
2021/06/29 00:50:16;;;;;;;2.38;2.28;;;;;;;;;;5134332;27;20210;-84
2021/06/29 00:52:45;;;;;;;2.50;2.30;;;;;;;;;;5133504;27;20183;-85
2021/06/29 00:55:15;;;;;;;2.35;1.92;;;;;;;;;;5112643;28;20196;-86
2021/06/29 00:57:48;;;;;;;1.80;1.70;;;;;;;;;;5115102;28;20188;-86
2021/06/29 01:00:25;;;;;;;1.77;1.67;;;;;;;;;;5114864;28;20569;-87
2021/06/29 01:02:53;;;;;;;1.80;1.60;;;;;;;;;;5114901;28;20198;-86
2021/06/29 01:05:27;;;;;;;2.28;1.50;;;;;;;;;;5115219;28;20204;-86
2021/06/29 01:08:05;;;;;;;1.58;1.48;;;;;;;;;;5115322;28;20184;-86
2021/06/29 01:10:35;;;;;;;2.55;1.58;;;;;;;;;;5115251;28;20200;-87
2021/06/29 01:13:05;;;;;;;1.60;1.50;;;;;;;;;;5115124;28;20263;-85
2021/06/29 01:15:34;;;;;;;1.20;1.10;;;;;;;;;;5115895;28;20196;-89
2021/06/29 01:18:04;;;;;;;1.50;1.40;;;;;;;;;;5116184;28;20279;-88
2021/06/29 01:20:35;;;;;;;1.52;1.45;;;;;;;;;;5115822;28;20264;-88
2021/06/29 01:23:20;;;;;;;1.75;1.65;;;;;;;;;;5116501;28;20188;-87
2021/06/29 01:25:47;;;;;;;1.23;1.13;;;;;;;;;;5116308;28;20262;-87
2021/06/29 01:28:45;;;;;;;1.48;1.38;;;;;;;;;;5116473;28;20266;-89
2021/06/29 01:31:58;;;;;;;1.30;1.20;;;;;;;;;;5117496;28;20720;-88
2021/06/29 01:34:27;;;;;;;1.70;1.40;;;;;;;;;;5116620;28;20263;-87
2021/06/29 01:37:03;;;;;;;2.17;1.73;;;;;;;;;;5116637;28;20222;-88
2021/06/29 01:39:31;;;;;;;1.20;1.10;;;;;;;;;;5116894;28;20266;-89
2021/06/29 01:42:06;;;;;;;1.10;1.00;;;;;;;;;;5116533;28;20214;-88
2021/06/29 01:44:39;;;;;;;2.70;1.17;;;;;;;;;;5117200;28;20685;-89
2021/06/29 01:47:26;;;;;;;1.00;1.00;;;;;;;;;;5116811;28;20709;-88
2021/06/29 01:50:11;;;;;;;0.90;0.90;;;;;;;;;;5117018;28;20264;-89
2021/06/29 01:52:40;;;;;;;1.25;1.17;;;;;;;;;;5116940;28;20718;-88
2021/06/29 01:55:09;;;;;;;1.00;1.00;;;;;;;;;;5116479;28;20176;-89
2021/06/29 01:57:55;;;;;;;0.73;0.73;;;;;;;;;;5115973;28;20230;-90
2021/06/29 02:01:38;;;;;;;;;;;;;;;;;;;;;
2021/06/29 02:05:13;;;;;;;0.95;0.95;;;;;;;;;;5116363;28;20183;-89
2021/06/29 02:08:32;;;;;;;1.10;1.10;;;;;;;;;;5116325;28;20233;-89
2021/06/29 02:11:09;;;;;;;1.15;1.15;;;;;;;;;;5116102;28;20745;-89
2021/06/29 02:13:53;;;;;;;1.08;1.08;;;;;;;;;;5116359;28;20268;-89
2021/06/29 02:17:02;;;;;;;1.40;1.30;;;;;;;;;;5116192;28;20230;-90
2021/06/29 02:19:45;;;;;;;1.65;1.42;;;;;;;;;;5071458;28;20260;-90
2021/06/29 02:22:19;;;;;;;1.30;1.30;;;;;;;;;;5115748;28;20202;-90
2021/06/29 02:24:51;;;;;;;1.58;1.48;;;;;;;;;;5115574;28;20191;-90
2021/06/29 02:27:54;;;;;;;0.85;0.85;;;;;;;;;;5115230;28;20215;-89
2021/06/29 02:30:38;;;;;;;0.85;0.85;;;;;;;;;;5115346;28;20219;-89
2021/06/29 02:33:15;;;;;;;1.60;1.10;;;;;;;;;;5116266;28;20231;-90
2021/06/29 02:35:53;;;;;;;1.08;1.08;;;;;;;;;;5115616;28;20249;-90
2021/06/29 02:38:29;;;;;;;8.23;7.60;;;;;;;;;;5115581;28;20759;-90
2021/06/29 02:41:07;;;;;;;5.60;5.15;;;;;;;;;;5114801;28;20187;-90
2021/06/29 02:43:44;;;;;;;3.53;2.95;;;;;;;;;;5115347;28;20208;-90
2021/06/29 02:46:11;;;;;;;2.05;1.95;;;;;;;;;;5108421;28;20243;-90
2021/06/29 02:48:57;;;;;;;2.00;1.80;;;;;;;;;;5115124;28;20205;-91
2021/06/29 02:51:30;;;;;;;1.60;1.50;;;;;;;;;;5115245;28;20216;-90
2021/06/29 02:54:11;;;;;;;1.45;1.35;;;;;;;;;;5115255;28;20291;-90
2021/06/29 02:56:40;;;;;;;1.20;1.20;;;;;;;;;;5115315;28;20242;-89
2021/06/29 02:59:17;;;;;;;0.90;0.90;;;;;;;;;;5115425;28;20214;-89
2021/06/29 03:01:55;;;;;;;1.25;1.15;;;;;;;;;;5114975;28;20194;-89
2021/06/29 03:04:24;;;;;;;1.20;1.10;;;;;;;;;;5115112;28;20214;-89
2021/06/29 03:06:53;;;;;;;1.42;1.33;;;;;;;;;;5115718;28;20239;-89
2021/06/29 03:09:34;;;;;;;1.00;1.00;;;;;;;;;;5115016;28;20621;-89
2021/06/29 03:12:18;;;;;;;1.50;1.40;;;;;;;;;;5115140;28;20699;-89
2021/06/29 03:14:46;;;;;;;1.52;1.42;;;;;;;;;;5115745;28;20218;-90
2021/06/29 03:17:18;;;;;;;1.45;1.27;;;;;;;;;;5116222;28;20216;-89
2021/06/29 03:20:01;;;;;;;1.10;1.10;;;;;;;;;;5116499;28;20214;-89
2021/06/29 03:22:31;;;;;;;1.33;1.23;;;;;;;;;;5116197;28;20196;-90
2021/06/29 03:25:09;;;;;;;1.20;1.20;;;;;;;;;;5117018;28;20617;-89
2021/06/29 03:27:44;;;;;;;1.00;1.00;;;;;;;;;;5115922;28;20220;-89
2021/06/29 03:30:33;;;;;;;1.08;0.98;;;;;;;;;;5115131;28;20729;-89
2021/06/29 03:33:01;;;;;;;0.63;0.63;;;;;;;;;;5115320;28;20212;-89
2021/06/29 03:35:43;;;;;;;0.60;0.60;;;;;;;;;;5134727;27;20216;-89
2021/06/29 03:38:35;;;;;;;0.70;0.70;;;;;;;;;;5135351;27;20182;-89
2021/06/29 03:41:03;;;;;;;0.77;0.77;;;;;;;;;;5130351;27;20198;-89
2021/06/29 03:43:39;;;;;;;0.73;0.73;;;;;;;;;;5115088;28;20620;-89
2021/06/29 03:46:32;;;;;;;0.90;0.90;;;;;;;;;;5114535;28;20306;-89
2021/06/29 03:49:18;;;;;;;0.50;0.50;;;;;;;;;;5092744;28;20790;-89
2021/06/29 03:51:50;;;;;;;0.68;0.68;;;;;;;;;;5092452;28;20220;-89
2021/06/29 03:54:17;;;;;;;0.80;0.80;;;;;;;;;;5091340;28;20200;-89
2021/06/29 03:56:44;;;;;;;0.68;0.68;;;;;;;;;;5091628;28;20226;-89
2021/06/29 03:59:14;;;;;;;0.80;0.80;;;;;;;;;;5090527;28;20200;-89
2021/06/29 04:01:41;;;;;;;0.82;0.82;;;;;;;;;;5090932;28;20295;-89
2021/06/29 04:04:09;;;;;;;1.10;1.10;;;;;;;;;;5091205;28;20184;-89
2021/06/29 04:06:39;;;;;;;0.90;0.90;;;;;;;;;;5092133;28;20227;-89
2021/06/29 04:09:09;;;;;;;0.65;0.65;;;;;;;;;;5092105;28;20207;-88
2021/06/29 04:11:37;;;;;;;1.25;1.15;;;;;;;;;;5091544;28;20224;-89
2021/06/29 04:14:05;;;;;;;1.13;0.90;;;;;;;;;;5091342;28;20272;-88
2021/06/29 04:16:34;;;;;;;0.88;0.88;;;;;;;;;;5091481;28;20222;-88
2021/06/29 04:19:02;;;;;;;0.68;0.68;;;;;;;;;;5091504;28;20737;-89
2021/06/29 04:21:30;;;;;;;0.80;0.80;;;;;;;;;;5094397;28;20226;-88
2021/06/29 04:23:57;;;;;;;1.15;1.10;;;;;;;;;;5095441;28;20243;-88
2021/06/29 04:26:25;;;;;;;1.02;1.02;;;;;;;;;;5095760;28;20230;-89
2021/06/29 04:28:52;;;;;;;1.10;1.00;;;;;;;;;;5095130;28;20208;-88
2021/06/29 04:31:21;;;;;;;0.82;0.82;;;;;;;;;;5094942;28;20283;-88
2021/06/29 04:33:50;;;;;;;1.15;1.15;;;;;;;;;;5095273;28;20193;-90
2021/06/29 04:36:17;;;;;;;1.20;1.20;;;;;;;;;;5096275;28;20240;-89
2021/06/29 04:38:45;;;;;;;1.13;1.13;;;;;;;;;;5096735;28;20224;-89
2021/06/29 04:41:12;;;;;;;0.77;0.77;;;;;;;;;;5096477;28;20227;-88
2021/06/29 04:43:43;;;;;;;0.77;0.77;;;;;;;;;;5096492;28;20183;-89
2021/06/29 04:46:10;;;;;;;0.77;0.77;;;;;;;;;;5096770;28;20216;-89
2021/06/29 04:48:39;;;;;;;0.82;0.82;;;;;;;;;;5118128;28;20235;-89
2021/06/29 04:51:10;;;;;;;0.80;0.80;;;;;;;;;;5118016;28;20219;-89
2021/06/29 04:53:37;;;;;;;1.30;0.85;;;;;;;;;;5116974;28;20263;-90
2021/06/29 04:56:16;;;;;;;0.88;0.88;;;;;;;;;;5116571;28;20243;-89
2021/06/29 04:58:45;;;;;;;0.60;0.60;;;;;;;;;;5117176;28;20198;-89
2021/06/29 05:01:12;;;;;;;0.63;0.63;;;;;;;;;;5116917;28;20642;-89
2021/06/29 05:03:40;;;;;;;0.80;0.80;;;;;;;;;;5117121;28;20211;-89
2021/06/29 05:06:09;;;;;;;0.80;0.80;;;;;;;;;;5116502;28;20222;-90
2021/06/29 05:08:36;;;;;;;0.80;0.80;;;;;;;;;;5115984;28;20219;-89
2021/06/29 05:11:05;;;;;;;0.90;0.90;;;;;;;;;;5115993;28;20188;-88
2021/06/29 05:13:32;;;;;;;0.90;0.90;;;;;;;;;;5115792;28;20577;-89
2021/06/29 05:16:00;;;;;;;0.90;0.90;;;;;;;;;;5116016;28;20315;-90
2021/06/29 05:18:27;;;;;;;1.10;1.10;;;;;;;;;;5115004;28;20653;-89
2021/06/29 05:20:55;;;;;;;1.13;1.13;;;;;;;;;;5114852;28;20283;-88
2021/06/29 05:23:24;;;;;;;1.08;1.08;;;;;;;;;;5115870;28;20580;-89
2021/06/29 05:25:51;;;;;;;0.93;0.93;;;;;;;;;;5115930;28;20219;-88
2021/06/29 05:28:20;;;;;;;1.00;1.00;;;;;;;;;;5115520;28;20192;-89
2021/06/29 05:30:48;;;;;;;1.10;1.10;;;;;;;;;;5115839;28;20199;-89
2021/06/29 05:33:15;;;;;;;1.02;1.02;;;;;;;;;;5114430;28;20246;-88
2021/06/29 05:35:43;;;;;;;1.05;1.00;;;;;;;;;;5115315;28;20212;-88
2021/06/29 05:38:10;;;;;;;0.85;0.85;;;;;;;;;;5115558;28;20278;-89
2021/06/29 05:40:39;;;;;;;1.10;1.08;;;;;;;;;;5115067;28;20278;-89
2021/06/29 05:43:07;;;;;;;1.00;1.00;;;;;;;;;;5115519;28;20203;-89
2021/06/29 05:45:35;;;;;;;1.30;1.30;;;;;;;;;;5114793;28;20187;-90
2021/06/29 05:48:02;;;;;;;1.25;1.25;;;;;;;;;;5115673;28;20705;-89
2021/06/29 05:50:29;;;;;;;1.50;1.13;;;;;;;;;;5116590;28;20192;-90
2021/06/29 05:52:58;;;;;;;1.60;1.50;;;;;;;;;;5117486;28;20290;-89
2021/06/29 05:55:27;;;;;;;1.90;1.52;;;;;;;;;;5117471;28;20282;-90
2021/06/29 05:57:55;;;;;;;1.70;1.60;;;;;;;;;;5116167;28;20225;-89
2021/06/29 06:00:23;;;;;;;1.45;1.35;;;;;;;;;;5119123;28;20210;-89
2021/06/29 06:02:51;;;;;;;1.63;1.38;;;;;;;;;;5116787;28;20478;-89
2021/06/29 06:05:18;;;;;;;1.35;1.27;;;;;;;;;;5115728;28;20214;-90
2021/06/29 06:07:46;;;;;;;1.58;1.20;;;;;;;;;;5117421;28;20214;-90
2021/06/29 06:10:14;;;;;;;1.27;1.27;;;;;;;;;;5119073;28;20242;-89
2021/06/29 06:12:42;;;;;;;1.23;1.23;;;;;;;;;;5116513;28;20200;-89
2021/06/29 06:15:12;;;;;;;1.00;1.00;;;;;;;;;;5115962;28;20199;-89
2021/06/29 06:17:39;;;;;;;1.00;1.00;;;;;;;;;;5115043;28;20238;-89
2021/06/29 06:20:10;;;;;;;1.20;1.10;;;;;;;;;;5114802;28;20183;-89
2021/06/29 06:22:38;;;;;;;1.40;1.30;;;;;;;;;;5115048;28;20231;-90
2021/06/29 06:25:08;;;;;;;1.20;1.20;;;;;;;;;;5114903;28;20196;-89
2021/06/29 06:27:36;;;;;;;1.33;1.23;;;;;;;;;;5114776;28;20216;-92
2021/06/29 06:30:04;;;;;;;1.10;1.10;;;;;;;;;;5114705;28;20539;-90
2021/06/29 06:32:32;;;;;;;1.40;1.30;;;;;;;;;;5113894;28;20224;-89
2021/06/29 06:35:00;;;;;;;2.00;1.90;;;;;;;;;;5113278;28;20570;-88
2021/06/29 06:37:27;;;;;;;2.08;1.98;;;;;;;;;;5113250;28;20842;-89
2021/06/29 06:39:55;;;;;;;1.92;1.83;;;;;;;;;;5113757;28;20176;-89
2021/06/29 06:42:22;;;;;;;1.80;1.70;;;;;;;;;;5113411;28;20622;-90
2021/06/29 06:44:50;;;;;;;1.20;1.20;;;;;;;;;;5112820;28;20267;-89
2021/06/29 06:47:17;;;;;;;2.25;2.08;;;;;;;;;;5113427;28;20310;-87
2021/06/29 06:49:46;;;;;;;1.50;1.40;;;;;;;;;;5113354;28;20671;-89
2021/06/29 06:52:14;;;;;;;1.83;1.70;;;;;;;;;;5113281;28;20676;-90
2021/06/29 06:54:41;;;;;;;2.03;1.85;;;;;;;;;;5112741;28;20643;-90
2021/06/29 06:57:10;;;;;;;2.17;2.08;;;;;;;;;;5112952;28;20212;-88
2021/06/29 06:59:38;;;;;;;2.50;2.30;;;;;;;;;;5127684;22;20234;-88
2021/06/29 07:02:07;;;;;;;2.05;1.95;;;;;;;;;;5119191;27;20182;-87
2021/06/29 07:04:34;;;;;;;2.63;2.42;;;;;;;;;;5132909;27;20175;-88
2021/06/29 07:07:04;;;;;;;2.25;2.10;;;;;;;;;;5133425;27;20211;-88
2021/06/29 07:09:31;;;;;;;2.30;2.10;;;;;;;;;;5132759;27;20219;-86
2021/06/29 07:12:01;;;;;;;2.53;2.35;;;;;;;;;;5132833;27;20574;-87
2021/06/29 07:14:28;;;;;;;2.78;1.85;;;;;;;;;;5133144;27;20215;-88
2021/06/29 07:16:56;;;;;;;2.65;2.45;;;;;;;;;;5133582;27;20263;-88
2021/06/29 07:19:23;;;;;;;3.00;2.80;;;;;;;;;;5133580;27;20227;-88
2021/06/29 07:21:51;;;;;;;2.70;2.50;;;;;;;;;;5133805;27;20191;-88
2021/06/29 07:24:20;;;;;;;2.40;2.20;;;;;;;;;;5133664;27;20203;-88
2021/06/29 07:26:47;;;;;;;2.65;2.45;;;;;;;;;;5134366;27;20198;-89
2021/06/29 07:29:15;;;;;;;2.28;2.08;;;;;;;;;;5134030;27;20221;-89
2021/06/29 07:31:42;;;;;;;1.85;1.75;;;;;;;;;;5134271;27;20190;-88
2021/06/29 07:34:10;;;;;;;3.42;2.83;;;;;;;;;;5133433;27;20210;-88
2021/06/29 07:36:37;;;;;;;2.35;2.20;;;;;;;;;;5134037;27;20278;-88
2021/06/29 07:39:06;;;;;;;1.95;1.80;;;;;;;;;;5133679;27;20222;-89
2021/06/29 07:41:35;;;;;;;2.05;1.95;;;;;;;;;;5133632;27;20647;-88
2021/06/29 07:44:02;;;;;;;3.38;2.67;;;;;;;;;;5133136;27;20270;-89
2021/06/29 07:46:30;;;;;;;2.13;2.03;;;;;;;;;;5133658;27;20198;-89
2021/06/29 07:48:57;;;;;;;1.90;1.80;;;;;;;;;;5133273;27;20179;-88
2021/06/29 07:51:25;;;;;;;1.90;1.80;;;;;;;;;;5133485;27;20305;-88
2021/06/29 07:53:52;;;;;;;2.40;2.20;;;;;;;;;;5133359;27;20219;-88
2021/06/29 07:56:20;;;;;;;2.13;2.03;;;;;;;;;;5132611;27;20682;-88
2021/06/29 07:58:49;;;;;;;1.80;1.70;;;;;;;;;;5133397;27;20207;-88
2021/06/29 08:01:18;;;;;;;1.70;1.60;;;;;;;;;;5133035;28;20226;-87
2021/06/29 08:03:46;;;;;;;1.88;1.77;;;;;;;;;;5133087;28;20203;-88
2021/06/29 08:06:14;;;;;;;1.80;1.70;;;;;;;;;;5133236;28;20667;-89
2021/06/29 08:08:42;;;;;;;1.95;1.85;;;;;;;;;;5133163;28;20644;-88
2021/06/29 08:11:10;;;;;;;1.75;1.60;;;;;;;;;;5133000;28;20301;-89
2021/06/29 08:13:39;;;;;;;1.52;1.42;;;;;;;;;;5132714;28;20207;-89
2021/06/29 08:16:09;;;;;;;1.50;1.48;;;;;;;;;;5133183;28;20199;-88
2021/06/29 08:18:37;;;;;;;2.53;1.73;;;;;;;;;;5133030;28;20558;-88
2021/06/29 08:21:06;;;;;;;2.00;1.90;;;;;;;;;;5133039;28;20230;-89
2021/06/29 08:23:34;;;;;;;1.35;1.25;;;;;;;;;;5132880;28;20210;-88
2021/06/29 08:26:02;;;;;;;2.35;2.00;;;;;;;;;;5132619;28;20562;-88
2021/06/29 08:28:33;;;;;;;1.80;1.70;;;;;;;;;;5132910;28;20274;-88
2021/06/29 08:31:01;;;;;;;1.60;1.50;;;;;;;;;;5133021;28;20253;-88
2021/06/29 08:33:30;;;;;;;1.83;1.70;;;;;;;;;;5132588;28;20209;-88
2021/06/29 08:35:58;;;;;;;2.10;2.00;;;;;;;;;;5132355;28;20207;-87
2021/06/29 08:38:26;;;;;;;2.00;1.90;;;;;;;;;;5133165;28;20618;-87
2021/06/29 08:40:54;;;;;;;1.70;1.60;;;;;;;;;;5132983;28;20305;-88
2021/06/29 08:43:22;;;;;;;2.00;1.90;;;;;;;;;;5132963;28;20176;-87
2021/06/29 08:45:51;;;;;;;1.98;1.88;;;;;;;;;;5132822;28;20199;-88
2021/06/29 08:48:19;;;;;;;1.60;1.50;;;;;;;;;;5132446;28;20281;-87
2021/06/29 08:50:48;;;;;;;2.15;2.05;;;;;;;;;;5132503;28;20212;-87
2021/06/29 08:53:16;;;;;;;1.95;1.85;;;;;;;;;;5132449;28;20636;-87
2021/06/29 08:55:49;;;;;;;1.67;1.58;;;;;;;;;;5132683;28;20213;-87
2021/06/29 08:58:18;;;;;;;1.90;1.80;;;;;;;;;;5132846;28;20289;-87
2021/06/29 09:00:45;;;;;;;2.08;1.75;;;;;;;;;;5132134;28;20730;-88
2021/06/29 09:03:13;;;;;;;2.30;2.10;;;;;;;;;;5132058;28;20191;-88
2021/06/29 09:05:47;;;;;;;2.30;2.10;;;;;;;;;;5132565;28;20667;-88
2021/06/29 09:08:17;;;;;;;1.88;1.77;;;;;;;;;;5134435;27;20205;-87
2021/06/29 09:11:06;;;;;;;2.28;2.17;;;;;;;;;;5136221;27;20230;-86
2021/06/29 09:13:33;;;;;;;2.35;2.25;;;;;;;;;;5136085;27;20198;-88
2021/06/29 09:16:01;;;;;;;1.83;1.73;;;;;;;;;;5135865;27;20183;-87
2021/06/29 09:18:31;;;;;;;1.80;1.70;;;;;;;;;;5135740;27;20648;-88
2021/06/29 09:21:02;;;;;;;1.60;1.50;;;;;;;;;;5135908;27;20250;-86
2021/06/29 09:23:31;;;;;;;1.88;1.77;;;;;;;;;;5135786;27;20198;-87
2021/06/29 09:26:01;;;;;;;2.38;2.17;;;;;;;;;;5136497;27;20187;-87
2021/06/29 09:28:30;;;;;;;2.40;2.30;;;;;;;;;;5135621;27;20203;-87
2021/06/29 09:31:00;;;;;;;1.70;1.60;;;;;;;;;;5135425;27;20583;-88
2021/06/29 09:33:32;;;;;;;1.80;1.70;;;;;;;;;;5135948;27;20226;-87
2021/06/29 09:36:03;;;;;;;2.05;1.65;;;;;;;;;;5135609;27;20211;-87
2021/06/29 09:38:33;;;;;;;1.55;1.45;;;;;;;;;;5135593;27;20190;-87
2021/06/29 09:41:06;;;;;;;2.22;2.13;;;;;;;;;;5135383;27;20223;-87
2021/06/29 09:43:36;;;;;;;1.80;1.70;;;;;;;;;;5135684;27;20212;-87
2021/06/29 09:46:06;;;;;;;3.83;1.80;;;;;;;;;;5135146;27;20183;-87
2021/06/29 09:48:40;;;;;;;2.15;2.05;;;;;;;;;;5135405;27;20213;-87
2021/06/29 09:51:16;;;;;;;1.75;1.65;;;;;;;;;;5135388;27;20653;-87
2021/06/29 09:53:44;;;;;;;2.97;1.88;;;;;;;;;;5135082;27;20189;-87
2021/06/29 09:56:16;;;;;;;1.67;1.60;;;;;;;;;;5134803;27;20207;-87
2021/06/29 09:58:49;;;;;;;1.88;1.77;;;;;;;;;;5135316;27;20184;-87
2021/06/29 10:01:18;;;;;;;1.85;1.75;;;;;;;;;;5134543;27;20258;-87
2021/06/29 10:03:49;;;;;;;2.05;1.50;;;;;;;;;;5135000;27;20195;-86
2021/06/29 10:06:20;;;;;;;1.58;1.48;;;;;;;;;;5134382;27;20184;-87
2021/06/29 10:08:49;;;;;;;2.10;2.00;;;;;;;;;;5134110;27;20184;-87
2021/06/29 10:11:25;;;;;;;1.98;1.88;;;;;;;;;;5134595;27;20524;-87
2021/06/29 10:14:00;;;;;;;2.00;1.90;;;;;;;;;;5133972;27;20194;-87
2021/06/29 10:16:31;;;;;;;1.95;1.85;;;;;;;;;;5133823;27;20209;-87
2021/06/29 10:21:48;;;;;;;2.22;2.13;;;;;;;;;;5133400;27;20190;-87
2021/06/29 10:24:20;;;;;;;2.03;1.92;;;;;;;;;;5134003;27;20199;-87
2021/06/29 10:26:50;;;;;;;2.20;2.10;;;;;;;;;;5133712;27;20191;-87
2021/06/29 10:29:20;;;;;;;2.25;2.15;;;;;;;;;;5133470;27;20183;-87
2021/06/29 10:31:50;;;;;;;2.05;1.95;;;;;;;;;;5132973;27;20209;-88
2021/06/29 10:34:19;;;;;;;2.30;2.20;;;;;;;;;;5133439;27;20573;-87
2021/06/29 10:36:50;;;;;;;2.30;2.20;;;;;;;;;;5133639;27;20203;-87
2021/06/29 10:39:21;;;;;;;2.10;2.00;;;;;;;;;;5133053;27;20178;-87
2021/06/29 10:41:52;;;;;;;2.00;1.90;;;;;;;;;;5133184;27;20210;-87
2021/06/29 10:44:22;;;;;;;2.17;1.90;;;;;;;;;;5133353;27;20195;-87
2021/06/29 10:46:51;;;;;;;1.85;1.75;;;;;;;;;;5133345;27;20656;-87
2021/06/29 10:49:38;;;;;;;2.00;1.55;;;;;;;;;;5133159;27;20199;-87
2021/06/29 10:52:36;;;;;;;1.80;1.70;;;;;;;;;;5133087;27;20693;-87
2021/06/29 10:55:05;;;;;;;1.77;1.67;;;;;;;;;;5133610;27;20218;-87
2021/06/29 10:57:40;;;;;;;1.95;1.85;;;;;;;;;;5133291;27;20218;-87
2021/06/29 11:00:31;;;;;;;1.90;1.80;;;;;;;;;;5132872;27;20225;-87
2021/06/29 11:03:07;;;;;;;2.22;2.03;;;;;;;;;;5133513;27;20259;-87
2021/06/29 11:05:37;;;;;;;2.30;2.10;;;;;;;;;;5133634;27;20605;-87
2021/06/29 11:08:14;;;;;;;1.70;1.60;;;;;;;;;;5133109;27;20207;-88
2021/06/29 11:10:45;;;;;;;4.97;3.67;;;;;;;;;;5132773;27;20253;-88
2021/06/29 11:13:12;;;;;;;2.50;2.40;;;;;;;;;;5133325;27;20226;-87
2021/06/29 11:15:47;;;;;;;2.80;2.70;;;;;;;;;;5133319;27;20715;-87
2021/06/29 11:18:16;;;;;;;2.22;2.13;;;;;;;;;;5132836;27;20199;-88
2021/06/29 11:20:45;;;;;;;2.17;2.00;;;;;;;;;;5132781;27;20324;-88
2021/06/29 11:26:51;;;;;;;2.55;2.38;;;;;;;;;;5046981;28;20258;-86
2021/06/29 11:29:42;;;;;;;3.15;2.95;;;;;;;;;;5047643;28;20202;-86
2021/06/29 11:32:44;;;;;;;2.55;2.45;;;;;;;;;;5131943;27;20194;-87
2021/06/29 11:35:39;;;;;;;2.50;2.40;;;;;;;;;;5131763;27;20222;-86
2021/06/29 11:38:08;;;;;;;2.03;1.92;;;;;;;;;;5129546;27;20202;-87
2021/06/29 11:40:37;;;;;;;2.10;2.00;;;;;;;;;;5133150;27;20306;-87
2021/06/29 11:43:12;;;;;;;2.00;1.90;;;;;;;;;;5132496;27;20662;-87
2021/06/29 11:45:41;;;;;;;1.65;1.58;;;;;;;;;;5132525;27;20270;-86
2021/06/29 11:48:42;;;;;;;1.85;1.75;;;;;;;;;;5132659;27;20198;-87
2021/06/29 11:51:09;;;;;;;2.80;2.60;;;;;;;;;;5131705;27;20223;-86
2021/06/29 11:53:40;;;;;;;2.42;2.33;;;;;;;;;;5115798;27;20819;-87
2021/06/29 11:56:12;;;;;;;2.08;1.85;;;;;;;;;;5111340;28;20289;-86
2021/06/29 11:58:48;;;;;;;2.40;2.20;;;;;;;;;;5110710;28;20176;-86
2021/06/29 12:01:17;;;;;;;2.28;2.17;;;;;;;;;;5111291;28;20715;-87
2021/06/29 12:03:44;;;;;;;2.10;2.00;;;;;;;;;;5111501;28;20190;-87
2021/06/29 12:06:18;;;;;;;2.67;2.47;;;;;;;;;;5111279;28;20182;-86
2021/06/29 12:08:46;;;;;;;1.92;1.83;;;;;;;;;;5111404;28;20183;-87
2021/06/29 12:11:14;;;;;;;2.17;2.08;;;;;;;;;;5119847;28;20468;-88
2021/06/29 12:13:42;;;;;;;2.33;2.22;;;;;;;;;;5132272;28;20199;-88
2021/06/29 12:16:16;;;;;;;1.77;1.67;;;;;;;;;;5131826;28;20222;-86
2021/06/29 12:18:50;;;;;;;2.40;2.30;;;;;;;;;;5131872;28;20281;-88
2021/06/29 12:21:18;;;;;;;2.67;2.58;;;;;;;;;;5131499;28;20302;-87
2021/06/29 12:23:46;;;;;;;2.95;2.75;;;;;;;;;;5131726;28;20561;-86
2021/06/29 12:26:14;;;;;;;2.30;2.20;;;;;;;;;;5132019;28;20645;-87
2021/06/29 12:28:43;;;;;;;2.45;2.30;;;;;;;;;;5132014;28;20631;-87
2021/06/29 12:31:16;;;;;;;2.22;2.13;;;;;;;;;;5131875;28;20225;-87
2021/06/29 12:33:46;;;;;;;2.40;2.30;;;;;;;;;;5131900;28;20194;-87
2021/06/29 12:36:18;;;;;;;2.28;2.17;;;;;;;;;;5132763;28;20305;-87
2021/06/29 12:38:47;;;;;;;7.10;6.40;;;;;;;;;;5132498;28;20203;-87
2021/06/29 12:41:20;;;;;;;4.35;4.05;;;;;;;;;;5132068;27;20223;-86
2021/06/29 12:43:49;;;;;;;2.90;2.63;;;;;;;;;;5136110;27;20199;-87
2021/06/29 12:46:21;;;;;;;2.38;2.28;;;;;;;;;;5135639;27;20194;-87
2021/06/29 12:49:04;;;;;;;2.20;2.10;;;;;;;;;;5135704;27;20226;-87
2021/06/29 12:51:36;;;;;;;1.88;1.77;;;;;;;;;;5135953;27;20563;-88
2021/06/29 12:54:07;;;;;;;1.90;1.80;;;;;;;;;;5135322;27;20206;-87
2021/06/29 12:56:37;;;;;;;1.50;1.40;;;;;;;;;;5135824;27;20698;-87
2021/06/29 12:59:06;;;;;;;1.77;1.67;;;;;;;;;;5135543;27;20571;-88
2021/06/29 13:01:38;;;;;;;1.42;1.33;;;;;;;;;;5135414;27;20231;-87
2021/06/29 13:04:13;;;;;;;1.63;1.52;;;;;;;;;;5136167;27;20262;-87
2021/06/29 13:06:44;;;;;;;1.80;1.70;;;;;;;;;;5136577;27;20178;-88
2021/06/29 13:09:15;;;;;;;3.35;2.58;;;;;;;;;;5136281;27;20187;-88
2021/06/29 13:11:55;;;;;;;2.28;2.17;;;;;;;;;;5135862;27;20199;-88
2021/06/29 13:14:23;;;;;;;2.38;2.25;;;;;;;;;;5135342;27;20180;-88
2021/06/29 13:17:02;;;;;;;2.88;2.67;;;;;;;;;;5135392;27;20218;-88
2021/06/29 13:19:37;;;;;;;2.50;2.40;;;;;;;;;;5134818;27;20223;-87
2021/06/29 13:22:07;;;;;;;2.22;2.13;;;;;;;;;;5135986;27;20189;-88
2021/06/29 13:24:46;;;;;;;2.33;2.22;;;;;;;;;;5135964;27;20183;-88
2021/06/29 13:27:27;;;;;;;2.38;2.28;;;;;;;;;;5136473;27;20187;-89
2021/06/29 13:30:09;;;;;;;2.17;2.08;;;;;;;;;;5135183;27;20214;-88
2021/06/29 13:32:40;;;;;;;2.03;1.92;;;;;;;;;;5134303;27;20621;-88
2021/06/29 13:35:11;;;;;;;1.70;1.65;;;;;;;;;;5135840;27;20184;-88
2021/06/29 13:37:47;;;;;;;2.25;1.80;;;;;;;;;;5135763;27;20195;-88
2021/06/29 13:40:17;;;;;;;1.67;1.58;;;;;;;;;;5135010;27;20215;-87
2021/06/29 13:42:47;;;;;;;1.45;1.42;;;;;;;;;;5134583;27;20179;-89
2021/06/29 13:45:16;;;;;;;1.30;1.30;;;;;;;;;;5135341;27;20195;-88
2021/06/29 13:47:51;;;;;;;1.30;1.30;;;;;;;;;;5134947;27;20179;-87
2021/06/29 13:50:35;;;;;;;1.27;1.27;;;;;;;;;;5135026;27;20219;-88
2021/06/29 13:53:04;;;;;;;1.25;1.25;;;;;;;;;;5134487;27;20191;-88
2021/06/29 13:55:36;;;;;;;2.20;2.00;;;;;;;;;;5133939;27;20182;-89
2021/06/29 13:58:24;;;;;;;2.00;1.90;;;;;;;;;;5132607;27;20218;-88
2021/06/29 14:00:54;;;;;;;1.80;1.70;;;;;;;;;;5133451;27;20284;-89
2021/06/29 14:03:25;;;;;;;1.80;1.70;;;;;;;;;;5133228;27;20222;-87
2021/06/29 14:06:40;;;;;;;1.95;1.85;;;;;;;;;;5133037;27;20214;-89
2021/06/29 14:09:34;;;;;;;2.97;2.40;;;;;;;;;;5136290;27;20214;-88
2021/06/29 14:12:07;;;;;;;2.53;2.40;;;;;;;;;;5136078;27;20195;-88
2021/06/29 14:14:46;;;;;;;2.13;2.03;;;;;;;;;;5135477;27;20187;-88
2021/06/29 14:17:53;;;;;;;2.10;2.00;;;;;;;;;;5134935;27;20206;-91
2021/06/29 14:20:22;;;;;;;2.10;2.00;;;;;;;;;;5133908;27;20217;-89
2021/06/29 14:22:50;;;;;;;1.90;1.80;;;;;;;;;;5133803;27;20203;-90
2021/06/29 14:25:17;;;;;;;1.80;1.70;;;;;;;;;;5133736;27;20215;-87
2021/06/29 14:27:50;;;;;;;2.38;2.28;;;;;;;;;;5134874;27;20179;-89
2021/06/29 14:30:25;;;;;;;1.85;1.75;;;;;;;;;;5135811;27;20302;-90
2021/06/29 14:32:58;;;;;;;1.48;1.38;;;;;;;;;;5135718;27;20198;-90
2021/06/29 14:35:52;;;;;;;1.60;1.50;;;;;;;;;;5136941;27;20656;-90
2021/06/29 14:38:20;;;;;;;1.40;1.40;;;;;;;;;;5134834;27;20229;-90
2021/06/29 14:40:47;;;;;;;1.42;1.42;;;;;;;;;;5132831;27;20305;-86
2021/06/29 14:43:15;;;;;;;1.38;1.35;;;;;;;;;;5132430;27;20187;-89
2021/06/29 14:45:44;;;;;;;1.48;1.38;;;;;;;;;;5132024;27;20202;-88
2021/06/29 14:48:12;;;;;;;1.50;1.40;;;;;;;;;;5131592;27;20700;-87
2021/06/29 14:50:41;;;;;;;1.70;1.60;;;;;;;;;;5131569;27;20226;-88
2021/06/29 14:53:10;;;;;;;8.93;7.25;;;;;;;;;;5131422;27;20182;-87
2021/06/29 14:55:38;;;;;;;4.65;4.35;;;;;;;;;;5131351;27;20203;-89
2021/06/29 14:58:05;;;;;;;3.63;3.33;;;;;;;;;;5131746;27;20280;-88
2021/06/29 15:00:33;;;;;;;1.95;1.85;;;;;;;;;;5131327;27;20708;-88
2021/06/29 15:03:01;;;;;;;1.70;1.60;;;;;;;;;;5131751;27;20513;-88
2021/06/29 15:05:28;;;;;;;1.77;1.67;;;;;;;;;;5130417;27;20179;-87
2021/06/29 15:07:59;;;;;;;2.17;2.08;;;;;;;;;;5131393;27;20209;-87
2021/06/29 15:10:28;;;;;;;1.80;1.70;;;;;;;;;;5131530;27;20218;-88
2021/06/29 15:12:58;;;;;;;2.20;2.08;;;;;;;;;;5131950;27;20183;-88
2021/06/29 15:15:28;;;;;;;2.15;2.05;;;;;;;;;;5111389;28;20286;-88
2021/06/29 15:17:55;;;;;;;1.80;1.70;;;;;;;;;;5111374;28;20223;-88
2021/06/29 15:20:51;;;;;;;2.17;2.08;;;;;;;;;;5111546;28;20219;-90